Time;durP1;ratioP1;P1;durP2;ratioP2;P2;SDS_P1;SDS_P2;PMS_P1;PMS_P2;Temp;Humidity;BMP_temperature;BMP_pressure;BME280_temperature;BME280_humidity;BME280_pressure;Samples;Min_cycle;Max_cycle;Signal;HPM_P1;HPM_P2
2023/03/08 00:00:11;;;;;;;2.42;1.42;;;;;;;-1.60;100.00;99177.75;4932922;29;20176;-85
2023/03/08 00:02:38;;;;;;;4.68;1.50;;;;;;;-1.93;100.00;99144.81;4932697;29;20062;-85
2023/03/08 00:05:05;;;;;;;3.75;1.55;;;;;;;-1.59;100.00;99180.31;4932928;28;20454;-85
2023/03/08 00:07:32;;;;;;;1.88;1.20;;;;;;;-1.86;100.00;99149.88;4934971;28;20048;-85
2023/03/08 00:09:59;;;;;;;3.53;1.48;;;;;;;-2.07;100.00;99122.75;4931368;29;20052;-85
2023/03/08 00:12:27;;;;;;;2.38;1.30;;;;;;;-1.94;100.00;99150.81;4932673;29;20052;-84
2023/03/08 00:14:54;;;;;;;3.15;1.38;;;;;;;-2.15;100.00;99104.91;4932717;29;20055;-83
2023/03/08 00:17:21;;;;;;;3.83;1.50;;;;;;;-2.03;100.00;99121.88;4933160;29;20051;-84
2023/03/08 00:19:50;;;;;;;4.82;1.90;;;;;;;-1.69;100.00;99181.28;4933010;28;20055;-85
2023/03/08 00:22:17;;;;;;;2.13;1.30;;;;;;;-1.99;100.00;99126.94;4932170;29;20054;-84
2023/03/08 00:24:44;;;;;;;3.50;1.42;;;;;;;-2.23;100.00;99096.44;4936085;29;20059;-84
2023/03/08 00:27:10;;;;;;;2.42;1.30;;;;;;;-2.12;100.00;99120.28;4935948;29;20058;-84
2023/03/08 00:29:37;;;;;;;5.53;1.60;;;;;;;-2.03;100.00;99150.09;4932872;29;20047;-84
2023/03/08 00:32:04;;;;;;;4.05;1.65;;;;;;;-1.93;100.00;99149.09;4928636;28;20051;-84
2023/03/08 00:34:31;;;;;;;3.47;1.42;;;;;;;-1.88;100.00;99162.72;4933212;29;20047;-84
2023/03/08 00:36:58;;;;;;;5.03;1.65;;;;;;;-1.77;100.00;99163.44;4932484;29;20127;-86
2023/03/08 00:39:24;;;;;;;3.28;1.33;;;;;;;-1.98;100.00;99138.06;4933743;29;20074;-84
2023/03/08 00:41:51;;;;;;;2.80;1.30;;;;;;;-1.85;100.00;99146.44;4932750;29;20056;-86
2023/03/08 00:44:18;;;;;;;2.33;1.30;;;;;;;-2.03;100.00;99135.53;4933554;29;20477;-86
2023/03/08 00:46:44;;;;;;;3.72;1.50;;;;;;;-2.29;100.00;99100.78;4932385;29;20051;-85
2023/03/08 00:49:12;;;;;;;3.13;1.40;;;;;;;-1.93;100.00;99152.53;4932107;29;20151;-85
2023/03/08 00:51:39;;;;;;;2.63;1.30;;;;;;;-2.02;100.00;99131.25;4930423;29;20124;-84
2023/03/08 00:54:05;;;;;;;3.05;1.50;;;;;;;-2.12;100.00;99141.63;4933066;28;20051;-86
2023/03/08 00:56:32;;;;;;;3.30;1.30;;;;;;;-2.19;100.00;99111.78;4934933;29;20055;-85
2023/03/08 00:58:59;;;;;;;3.53;1.30;;;;;;;-1.95;100.00;99149.13;4932312;28;20056;-86
2023/03/08 01:01:26;;;;;;;8.63;1.88;;;;;;;-1.85;100.00;99172.94;4932183;29;20432;-86
2023/03/08 01:03:52;;;;;;;4.85;1.40;;;;;;;-2.32;100.00;99093.16;4932492;28;20058;-85
2023/03/08 01:06:19;;;;;;;2.75;1.50;;;;;;;-2.18;100.00;99130.59;4932500;29;20065;-85
2023/03/08 01:08:46;;;;;;;4.13;1.55;;;;;;;-1.99;100.00;99156.88;4992862;28;20052;-85
2023/03/08 01:11:24;;;;;;;3.42;1.60;;;;;;;-2.12;100.00;99120.28;4922304;29;20060;-85
2023/03/08 01:13:52;;;;;;;2.40;1.30;;;;;;;-1.96;100.00;99157.69;4933545;29;20051;-84
2023/03/08 01:16:23;;;;;;;5.18;1.42;;;;;;;-1.93;100.00;99170.47;4932484;29;20054;-84
2023/03/08 01:18:50;;;;;;;4.05;1.58;;;;;;;-2.10;100.00;99142.44;4932744;29;20054;-84
2023/03/08 01:21:17;;;;;;;2.88;1.40;;;;;;;-1.99;100.00;99160.28;4929789;29;20048;-84
2023/03/08 01:23:44;;;;;;;4.25;1.40;;;;;;;-2.03;100.00;99145.81;4930981;29;20063;-84
2023/03/08 01:26:13;;;;;;;3.00;1.48;;;;;;;-1.91;100.00;99167.91;4936496;29;20492;-84
2023/03/08 01:28:41;;;;;;;2.75;1.30;;;;;;;-1.81;100.00;99176.31;4932493;28;20056;-85
2023/03/08 01:31:14;;;;;;;2.88;1.40;;;;;;;-1.85;100.00;99167.81;4930115;28;20051;-85
2023/03/08 01:33:42;;;;;;;3.38;1.60;;;;;;;-2.29;100.00;99108.47;4932662;29;20059;-85
2023/03/08 01:36:12;;;;;;;1.88;1.27;;;;;;;-1.92;100.00;99171.31;4932484;28;20056;-85
2023/03/08 01:38:38;;;;;;;2.10;1.20;;;;;;;-2.05;100.00;99144.09;4932685;28;20058;-85
2023/03/08 01:41:08;;;;;;;2.28;1.30;;;;;;;-1.95;100.00;99163.66;4926188;29;20063;-85
2023/03/08 01:43:37;;;;;;;2.78;1.38;;;;;;;-2.48;100.00;99106.97;4933866;28;20594;-84
2023/03/08 01:46:19;;;;;;;3.47;1.55;;;;;;;-2.32;100.00;99164.06;4932231;29;20048;-85
2023/03/08 01:49:06;;;;;;;2.60;1.30;;;;;;;-2.75;100.00;99116.66;4932804;29;20074;-85
2023/03/08 01:51:37;;;;;;;3.20;1.30;;;;;;;-2.34;100.00;99155.53;4930463;28;20074;-85
2023/03/08 01:54:11;;;;;;;4.47;1.63;;;;;;;-2.46;100.00;99150.53;4932450;29;20063;-86
2023/03/08 01:56:41;;;;;;;2.67;1.38;;;;;;;-2.75;100.00;99103.84;4934134;29;20071;-85
2023/03/08 01:59:09;;;;;;;3.00;1.30;;;;;;;-2.90;100.00;99104.00;4931339;29;20060;-85
2023/03/08 02:01:36;;;;;;;5.68;1.38;;;;;;;-2.58;100.00;99144.69;4931371;29;20047;-85
2023/03/08 02:04:03;;;;;;;5.28;1.75;;;;;;;-2.51;100.00;99163.41;4931114;28;20105;-85
2023/03/08 02:06:29;;;;;;;3.75;1.40;;;;;;;-2.70;100.00;99132.00;4930166;29;20055;-85
2023/03/08 02:08:57;;;;;;;2.78;1.33;;;;;;;-2.74;100.00;99126.03;4992085;28;20056;-84
2023/03/08 02:11:24;;;;;;;2.90;1.33;;;;;;;-2.79;100.00;99120.09;4930662;28;20067;-85
2023/03/08 02:13:53;;;;;;;3.20;1.30;;;;;;;-2.53;100.00;99168.56;4931665;29;20052;-84
2023/03/08 02:16:21;;;;;;;2.05;1.38;;;;;;;-3.00;100.00;99076.78;4931226;29;20048;-84
2023/03/08 02:19:00;;;;;;;1.88;1.30;;;;;;;-2.57;100.00;99164.31;4932693;29;20043;-85
2023/03/08 02:21:29;;;;;;;2.75;1.30;;;;;;;-2.65;100.00;99127.66;4922096;28;20056;-85
2023/03/08 02:24:05;;;;;;;3.20;1.50;;;;;;;-2.51;100.00;99146.31;4947728;29;20074;-85
2023/03/08 02:26:35;;;;;;;1.75;1.13;;;;;;;-2.65;100.00;99114.03;4947526;29;20043;-84
2023/03/08 02:29:02;;;;;;;2.35;1.30;;;;;;;-2.63;100.00;99117.41;4941261;28;20067;-85
2023/03/08 02:31:29;;;;;;;1.60;1.20;;;;;;;-2.84;100.00;99080.88;4930309;29;20048;-85
2023/03/08 02:33:56;;;;;;;2.67;1.30;;;;;;;-2.94;100.00;99054.53;4931402;29;20447;-85
2023/03/08 02:36:22;;;;;;;1.60;1.00;;;;;;;-2.76;100.00;99078.22;4934261;29;20047;-85
2023/03/08 02:38:49;;;;;;;2.67;1.33;;;;;;;-2.98;100.00;99054.56;4950265;28;20055;-86
2023/03/08 02:41:16;;;;;;;2.55;1.35;;;;;;;-2.72;100.00;99096.13;4935313;28;20063;-85
2023/03/08 02:43:43;;;;;;;2.63;1.33;;;;;;;-2.87;100.00;99068.97;4931857;28;20074;-85
2023/03/08 02:46:11;;;;;;;2.40;1.40;;;;;;;-2.52;100.00;99124.09;4931606;29;20051;-86
2023/03/08 02:48:38;;;;;;;2.60;1.30;;;;;;;-2.80;100.00;99077.41;4948840;29;20043;-85
2023/03/08 02:51:05;;;;;;;2.20;1.20;;;;;;;-2.89;100.00;99068.09;4923776;28;20055;-85
2023/03/08 02:53:31;;;;;;;1.77;1.20;;;;;;;-3.05;100.00;99056.31;4932356;28;20052;-85
2023/03/08 02:55:58;;;;;;;1.60;1.20;;;;;;;-2.94;100.00;99080.13;4955160;28;20047;-85
2023/03/08 02:58:25;;;;;;;1.65;1.15;;;;;;;-2.84;100.00;99080.03;4958294;28;20070;-86
2023/03/08 03:00:51;;;;;;;2.85;2.10;;;;;;;-2.89;100.00;99080.06;4926875;29;20524;-86
2023/03/08 03:03:18;;;;;;;3.05;1.55;;;;;;;-2.84;100.00;99090.28;4931900;29;20051;-84
2023/03/08 03:05:45;;;;;;;2.35;1.40;;;;;;;-2.72;100.00;99101.25;4938535;28;20048;-85
2023/03/08 03:08:12;;;;;;;2.47;1.40;;;;;;;-3.07;100.00;99043.53;4941401;29;20052;-85
2023/03/08 03:10:39;;;;;;;3.20;1.27;;;;;;;-2.62;100.00;99096.03;4947345;28;20063;-86
2023/03/08 03:13:05;;;;;;;2.55;1.27;;;;;;;-2.77;100.00;99079.13;4934247;28;20073;-85
2023/03/08 03:15:33;;;;;;;2.97;1.33;;;;;;;-2.70;100.00;99088.44;4934384;28;20055;-85
2023/03/08 03:17:59;;;;;;;2.70;1.30;;;;;;;-2.99;100.00;99048.59;4933688;29;20489;-84
2023/03/08 03:20:26;;;;;;;1.90;1.20;;;;;;;-2.91;100.00;99071.56;4933958;29;20071;-84
2023/03/08 03:22:53;;;;;;;1.80;1.30;;;;;;;-3.20;100.00;99052.19;4928984;29;20477;-86
2023/03/08 03:25:20;;;;;;;2.22;1.30;;;;;;;-2.72;100.00;99126.03;4932083;29;20059;-84
2023/03/08 03:27:46;;;;;;;2.33;1.30;;;;;;;-3.07;100.00;99070.84;4932588;28;20047;-84
2023/03/08 03:30:13;;;;;;;1.77;1.30;;;;;;;-2.96;100.00;99086.94;4938798;29;20734;-85
2023/03/08 03:32:40;;;;;;;2.28;1.27;;;;;;;-3.00;100.00;99072.50;4929838;29;20055;-84
2023/03/08 03:35:07;;;;;;;5.57;1.50;;;;;;;-3.03;100.00;99069.09;4936899;28;20056;-85
2023/03/08 03:37:35;;;;;;;2.88;1.30;;;;;;;-3.32;100.00;99019.03;4933995;29;20055;-85
2023/03/08 03:40:03;;;;;;;2.80;1.73;;;;;;;-3.29;100.00;99012.16;4946782;28;20109;-86
2023/03/08 03:42:30;;;;;;;3.05;1.50;;;;;;;-2.94;100.00;99074.13;4928624;28;20059;-85
2023/03/08 03:44:57;;;;;;;4.72;1.50;;;;;;;-2.80;100.00;99085.09;4932675;29;20430;-86
2023/03/08 03:47:24;;;;;;;2.05;1.20;;;;;;;-2.98;100.00;99077.59;4933943;29;20102;-85
2023/03/08 03:49:50;;;;;;;2.83;1.30;;;;;;;-3.04;100.00;99052.91;4946340;29;20769;-85
2023/03/08 03:52:17;;;;;;;3.08;1.40;;;;;;;-3.31;100.00;99013.03;4922898;29;20059;-86
2023/03/08 03:54:44;;;;;;;2.40;1.25;;;;;;;-3.13;100.00;99042.75;4936745;29;20485;-85
2023/03/08 03:57:11;;;;;;;3.85;1.35;;;;;;;-3.30;100.00;99015.56;4951254;28;20055;-85
2023/03/08 03:59:37;;;;;;;4.32;1.65;;;;;;;-3.29;100.00;99034.38;4939096;28;20158;-86
2023/03/08 04:02:04;;;;;;;2.88;1.58;;;;;;;-3.32;100.00;99068.50;4932145;29;20056;-86
2023/03/08 04:04:31;;;;;;;4.47;1.50;;;;;;;-3.39;100.00;99048.09;4933093;29;20048;-86
2023/03/08 04:06:58;;;;;;;2.53;1.30;;;;;;;-3.59;100.00;99025.19;4935247;28;20059;-86
2023/03/08 04:09:24;;;;;;;3.53;1.38;;;;;;;-3.45;100.00;99041.31;4934180;29;20139;-86
2023/03/08 04:11:51;;;;;;;4.65;1.23;;;;;;;-3.36;100.00;99077.06;4933108;28;20117;-85
2023/03/08 04:14:18;;;;;;;2.03;1.30;;;;;;;-3.36;100.00;99077.06;4933157;29;20051;-86
2023/03/08 04:16:45;;;;;;;2.13;1.30;;;;;;;-3.58;100.00;99024.34;4941262;29;20406;-86
2023/03/08 04:19:12;;;;;;;5.45;1.60;;;;;;;-3.65;100.00;99016.75;4933040;29;20076;-85
2023/03/08 04:21:39;;;;;;;4.70;1.45;;;;;;;-3.19;100.00;99087.16;4931930;28;20071;-85
2023/03/08 04:24:06;;;;;;;3.20;1.48;;;;;;;-3.85;100.00;98982.78;4947176;29;20043;-85
2023/03/08 04:26:33;;;;;;;1.55;1.20;;;;;;;-3.67;100.00;99005.66;4927196;28;20051;-85
2023/03/08 04:29:04;;;;;;;1.63;1.20;;;;;;;-3.71;100.00;99019.31;4935626;28;20420;-85
2023/03/08 04:31:33;;;;;;;2.13;1.48;;;;;;;-3.21;100.00;99085.47;4933577;28;20792;-85
2023/03/08 04:34:01;;;;;;;1.85;1.20;;;;;;;-3.45;100.00;99039.59;4947271;29;20085;-85
2023/03/08 04:36:28;;;;;;;3.88;1.52;;;;;;;-3.59;100.00;99035.44;4934259;28;20493;-85
2023/03/08 04:38:55;;;;;;;3.28;1.75;;;;;;;-3.34;100.00;99085.56;4932928;29;20059;-85
2023/03/08 04:41:22;;;;;;;3.63;1.50;;;;;;;-3.40;100.00;99093.28;4932160;29;20492;-85
2023/03/08 04:43:51;;;;;;;2.03;1.25;;;;;;;-3.62;100.00;99029.47;4938660;29;20047;-85
2023/03/08 04:46:21;;;;;;;2.70;1.30;;;;;;;-3.39;100.00;99040.41;4932296;29;20048;-85
2023/03/08 04:48:51;;;;;;;2.55;1.35;;;;;;;-3.44;100.00;99014.84;4933775;29;20178;-85
2023/03/08 04:51:19;;;;;;;2.78;1.20;;;;;;;-3.29;100.00;99027.53;4931368;29;20055;-85
2023/03/08 04:53:46;;;;;;;2.33;1.30;;;;;;;-3.21;100.00;99041.97;4932166;29;20052;-86
2023/03/08 04:56:14;;;;;;;3.05;1.30;;;;;;;-3.04;100.00;99077.66;4943739;28;20528;-85
2023/03/08 04:58:41;;;;;;;3.22;1.40;;;;;;;-3.04;100.00;99080.22;4948080;28;20456;-85
2023/03/08 05:01:14;;;;;;;2.13;1.30;;;;;;;-3.25;100.00;99041.16;4930121;28;20056;-85
2023/03/08 05:03:42;;;;;;;1.52;1.20;;;;;;;-3.24;100.00;99035.16;4932270;29;20051;-85
2023/03/08 05:06:10;;;;;;;1.83;1.15;;;;;;;-2.85;100.00;99068.94;4932050;29;20058;-84
2023/03/08 05:08:37;;;;;;;5.13;1.48;;;;;;;-3.26;100.00;98989.13;4933206;29;20059;-84
2023/03/08 05:11:05;;;;;;;2.25;1.10;;;;;;;-3.21;100.00;99037.69;4930857;29;20504;-85
2023/03/08 05:13:35;;;;;;;3.53;1.30;;;;;;;-3.66;100.00;98993.72;5030172;28;20052;-84
2023/03/08 05:16:05;;;;;;;4.43;1.40;;;;;;;-3.24;100.00;99068.41;4951383;29;20501;-85
2023/03/08 05:18:32;;;;;;;1.58;1.20;;;;;;;-3.44;100.00;99040.44;4935841;29;20106;-84
2023/03/08 05:21:05;;;;;;;3.88;1.30;;;;;;;-3.86;100.00;98987.06;4930082;29;20504;-85
2023/03/08 05:23:33;;;;;;;3.38;1.30;;;;;;;-3.60;100.00;99065.28;4932385;29;20425;-85
2023/03/08 05:26:02;;;;;;;5.00;1.35;;;;;;;-4.36;100.00;98985.66;4939113;29;20052;-85
2023/03/08 05:28:31;;;;;;;2.28;1.33;;;;;;;-4.17;100.00;99073.31;4931277;29;20074;-85
2023/03/08 05:31:11;;;;;;;6.28;1.50;;;;;;;-4.11;100.00;99067.31;4925628;29;20052;-85
2023/03/08 05:33:39;;;;;;;3.67;1.50;;;;;;;-3.87;100.00;99062.06;4932886;29;20051;-85
2023/03/08 05:36:06;;;;;;;4.50;1.42;;;;;;;-4.43;100.00;98964.38;4945934;28;20061;-85
2023/03/08 05:38:34;;;;;;;2.85;1.40;;;;;;;-3.71;100.00;99072.19;4942825;29;20044;-85
2023/03/08 05:41:02;;;;;;;2.38;1.48;;;;;;;-3.59;100.00;99054.22;4923740;29;20055;-85
2023/03/08 05:43:29;;;;;;;2.33;1.30;;;;;;;-3.91;100.00;99003.25;4929515;29;20051;-85
2023/03/08 05:46:02;;;;;;;3.03;1.48;;;;;;;-3.57;100.00;99044.81;4931269;29;20391;-84
2023/03/08 05:48:29;;;;;;;;;;;;;;;-3.43;100.00;99054.94;4920301;28;20068;-84
2023/03/08 05:50:56;;;;;;;2.00;1.33;;;;;;;-3.63;100.00;99025.25;4924158;29;19927;-85
2023/03/08 05:53:24;;;;;;;6.05;1.90;;;;;;;-3.74;100.00;99009.13;4936224;28;20093;-85
2023/03/08 05:55:51;;;;;;;6.07;1.35;;;;;;;-3.73;100.00;99020.22;4941875;28;20058;-85
2023/03/08 05:58:18;;;;;;;2.03;1.40;;;;;;;-3.62;100.00;99044.84;4932136;28;20489;-85
2023/03/08 06:00:44;;;;;;;2.17;1.20;;;;;;;-4.12;100.00;98974.44;4928163;29;20048;-85
2023/03/08 06:03:11;;;;;;;2.08;1.30;;;;;;;-3.68;100.00;99044.91;4931717;29;20401;-84
2023/03/08 06:05:38;;;;;;;3.33;1.40;;;;;;;-4.10;100.00;98972.72;4933369;28;20161;-84
2023/03/08 06:08:05;;;;;;;3.55;2.03;;;;;;;-3.99;100.00;98993.09;4938365;28;20050;-85
2023/03/08 06:10:32;;;;;;;3.58;1.30;;;;;;;-3.77;100.00;99037.28;4930399;29;20052;-84
2023/03/08 06:12:59;;;;;;;2.30;1.30;;;;;;;-4.13;100.00;98988.06;4931101;28;20059;-84
2023/03/08 06:15:25;;;;;;;2.55;1.40;;;;;;;-3.96;100.00;99003.31;4930826;29;20051;-84
2023/03/08 06:17:53;;;;;;;2.00;1.30;;;;;;;-3.89;100.00;99027.97;4932220;29;20405;-84
2023/03/08 06:20:19;;;;;;;1.67;1.23;;;;;;;-3.90;100.00;99022.88;4930756;28;20106;-85
2023/03/08 06:22:46;;;;;;;1.50;1.10;;;;;;;-3.93;100.00;99022.88;4934800;29;20051;-87
2023/03/08 06:25:13;;;;;;;2.63;1.38;;;;;;;-4.17;100.00;99018.78;4940402;28;20054;-86
2023/03/08 06:27:40;;;;;;;2.75;1.50;;;;;;;-4.46;100.00;99032.53;4939655;29;20472;-86
2023/03/08 06:30:07;;;;;;;2.95;1.40;;;;;;;-4.49;100.00;99022.34;4938284;29;20052;-85
2023/03/08 06:32:36;;;;;;;2.70;1.60;;;;;;;-4.55;100.00;99037.69;4935021;28;20055;-86
2023/03/08 06:35:03;;;;;;;2.17;1.30;;;;;;;-4.36;100.00;99029.09;4939955;29;20109;-87
2023/03/08 06:37:34;;;;;;;3.08;1.40;;;;;;;-4.46;100.00;98999.31;4937426;28;20450;-86
2023/03/08 06:40:02;;;;;;;2.47;1.42;;;;;;;-4.06;100.00;99068.97;4937343;29;20062;-85
2023/03/08 06:42:29;;;;;;;2.30;1.40;;;;;;;-4.44;100.00;99012.97;4936845;29;20548;-86
2023/03/08 06:45:07;;;;;;;3.00;1.30;;;;;;;-4.69;100.00;98991.75;4936181;29;20497;-86
2023/03/08 06:47:34;;;;;;;2.10;1.27;;;;;;;-4.56;100.00;99010.44;4940573;29;20391;-84
2023/03/08 06:50:01;;;;;;;2.40;1.40;;;;;;;-4.64;100.00;98990.91;4932703;29;20082;-93
2023/03/08 06:52:33;;;;;;;6.05;2.00;;;;;;;-4.36;100.00;99026.53;4938451;28;20059;-90
2023/03/08 06:55:00;;;;;;;3.05;1.42;;;;;;;-4.23;100.00;99052.91;4952086;28;20054;-90
2023/03/08 06:57:27;;;;;;;2.75;1.50;;;;;;;-4.58;100.00;99007.91;4950927;28;20058;-90
2023/03/08 06:59:54;;;;;;;6.13;1.70;;;;;;;-5.16;100.00;98975.75;4942367;29;20400;-91
2023/03/08 07:02:20;;;;;;;4.80;2.25;;;;;;;-5.01;100.00;99016.53;4947199;28;20688;-91
2023/03/08 07:04:47;;;;;;;5.32;1.52;;;;;;;-4.88;100.00;99039.50;4951129;28;20051;-91
2023/03/08 07:07:15;;;;;;;3.88;1.60;;;;;;;-4.90;100.00;99036.94;4935740;28;20056;-91
2023/03/08 07:09:42;;;;;;;4.43;1.70;;;;;;;-4.60;100.00;99058.16;4931628;29;20114;-91
2023/03/08 07:12:09;;;;;;;3.28;1.67;;;;;;;-4.92;100.00;98995.25;4931720;29;20380;-91
2023/03/08 07:14:35;;;;;;;3.42;1.55;;;;;;;-4.66;100.00;99030.06;5017478;28;20059;-91
2023/03/08 07:17:02;;;;;;;5.20;1.58;;;;;;;-4.43;100.00;99038.47;4932231;29;20068;-91
2023/03/08 07:19:30;;;;;;;3.65;1.50;;;;;;;-4.53;100.00;98995.97;4946199;29;20082;-93
2023/03/08 07:21:57;;;;;;;2.83;1.52;;;;;;;-3.99;100.00;99071.50;4933293;29;20067;-92
2023/03/08 07:24:23;;;;;;;6.28;1.70;;;;;;;-4.17;100.00;99026.44;4931886;28;20056;-93
2023/03/08 07:26:50;;;;;;;3.00;1.50;;;;;;;-3.84;100.00;99048.41;4931851;29;20048;-93
2023/03/08 07:29:17;;;;;;;2.85;1.40;;;;;;;-3.80;100.00;99036.47;4932109;28;20059;-93
2023/03/08 07:31:44;;;;;;;1.92;1.40;;;;;;;-3.63;100.00;99047.41;4917890;28;20055;-91
2023/03/08 07:34:11;;;;;;;4.10;1.50;;;;;;;-3.80;100.00;99014.28;4929138;28;20079;-91
2023/03/08 07:36:38;;;;;;;3.53;1.60;;;;;;;-3.47;100.00;99055.81;4935661;29;20051;-92
2023/03/08 07:39:05;;;;;;;5.00;1.92;;;;;;;-3.54;100.00;99024.34;4935506;29;20052;-92
2023/03/08 07:41:33;;;;;;;3.88;1.70;;;;;;;-3.09;100.00;99047.81;4934364;29;20110;-91
2023/03/08 07:44:01;;;;;;;4.95;2.00;;;;;;;-1.63;100.00;99059.75;4934621;29;20047;-90
2023/03/08 07:46:28;;;;;;;4.70;2.42;;;;;;;-0.87;100.00;99043.94;4934579;29;20091;-91
2023/03/08 07:48:55;;;;;;;8.43;2.28;;;;;;;-0.13;100.00;99084.50;4935215;28;20087;-92
2023/03/08 07:51:22;;;;;;;9.05;2.60;;;;;;;0.12;100.00;99041.09;4923834;28;20052;-92
2023/03/08 07:53:51;;;;;;;7.38;2.70;;;;;;;0.53;100.00;99084.78;4922883;29;20055;-90
2023/03/08 07:56:18;;;;;;;10.40;3.33;;;;;;;0.65;100.00;99081.09;4937186;29;20052;-93
2023/03/08 07:58:45;;;;;;;13.45;2.70;;;;;;;0.70;100.00;99045.78;4934477;29;20055;-91
2023/03/08 08:01:13;;;;;;;12.93;10.55;;;;;;;0.80;100.00;99080.75;4943298;29;20044;-86
2023/03/08 08:03:39;;;;;;;9.55;4.90;;;;;;;1.41;100.00;99093.78;4942122;28;20047;-85
2023/03/08 08:06:07;;;;;;;6.70;2.78;;;;;;;1.09;100.00;99084.31;4947188;28;20056;-85
2023/03/08 08:08:34;;;;;;;5.05;2.42;;;;;;;1.03;100.00;99064.72;4940658;28;20044;-89
2023/03/08 08:11:08;;;;;;;3.78;1.67;;;;;;;1.15;100.00;99050.63;4924243;28;20063;-90
2023/03/08 08:13:35;;;;;;;8.43;1.58;;;;;;;1.51;100.00;99051.41;4929617;29;20055;-89
2023/03/08 08:16:02;;;;;;;4.13;1.48;;;;;;;2.07;100.00;99094.56;4949543;29;20382;-89
2023/03/08 08:18:29;;;;;;;4.40;1.30;;;;;;;2.17;100.00;99071.03;4932762;28;20052;-90
2023/03/08 08:21:03;;;;;;;3.47;1.35;;;;;;;2.24;100.00;99029.47;4933260;29;20051;-90
2023/03/08 08:23:31;;;;;;;3.90;1.40;;;;;;;2.07;100.00;99060.13;4946419;29;20047;-89
2023/03/08 08:25:58;;;;;;;3.38;1.50;;;;;;;2.19;100.00;99064.94;4938481;29;20497;-90
2023/03/08 08:28:26;;;;;;;3.00;1.33;;;;;;;2.34;100.00;99091.19;4933991;28;20055;-89
2023/03/08 08:31:02;;;;;;;3.45;1.30;;;;;;;2.46;100.00;99081.34;4931979;28;20060;-88
2023/03/08 08:33:30;;;;;;;3.28;1.30;;;;;;;2.50;100.00;99102.75;4933736;29;20093;-89
2023/03/08 08:35:58;;;;;;;4.43;1.50;;;;;;;2.43;100.00;99096.94;4944659;29;20052;-89
2023/03/08 08:38:25;;;;;;;3.10;1.20;;;;;;;2.02;100.00;99056.84;4934063;28;20101;-89
2023/03/08 08:40:52;;;;;;;3.97;1.30;;;;;;;2.47;100.00;99090.75;4924860;29;20048;-89
2023/03/08 08:43:19;;;;;;;4.63;1.50;;;;;;;2.60;100.00;99087.81;4932066;28;20064;-88
2023/03/08 08:45:48;;;;;;;3.72;1.20;;;;;;;2.75;100.00;99082.16;4931586;29;20062;-88
2023/03/08 08:48:15;;;;;;;3.10;1.10;;;;;;;2.71;100.00;99057.31;4931645;29;20121;-88
2023/03/08 08:50:42;;;;;;;4.55;1.35;;;;;;;3.00;100.00;99089.94;4932504;28;20055;-88
2023/03/08 08:53:09;;;;;;;5.40;1.45;;;;;;;3.36;100.00;99104.28;4932401;29;20063;-87
2023/03/08 08:55:36;;;;;;;5.45;1.60;;;;;;;3.01;100.00;99070.97;4937551;28;20043;-88
2023/03/08 08:58:06;;;;;;;5.07;1.50;;;;;;;3.56;100.00;99090.66;4933029;28;20519;-88
2023/03/08 09:00:34;;;;;;;3.60;1.20;;;;;;;3.83;100.00;99106.97;4930793;29;20048;-87
2023/03/08 09:03:02;;;;;;;2.42;1.20;;;;;;;3.61;100.00;99107.72;4927147;29;20056;-88
2023/03/08 09:05:30;;;;;;;12.80;1.48;;;;;;;3.50;100.00;99107.25;4922390;28;20062;-88
2023/03/08 09:07:59;;;;;;;2.42;1.25;;;;;;;3.54;100.00;99070.03;4933422;29;20052;-88
2023/03/08 09:10:27;;;;;;;5.55;1.73;;;;;;;3.18;100.00;99108.34;4931093;29;20585;-88
2023/03/08 09:12:55;;;;;;;2.17;1.10;;;;;;;3.03;100.00;99107.13;4932213;28;20066;-87
2023/03/08 09:15:24;;;;;;;3.65;1.60;;;;;;;2.80;100.00;99118.22;4932533;29;20399;-87
2023/03/08 09:17:51;;;;;;;2.97;1.50;;;;;;;2.37;100.00;99078.19;4932702;29;20055;-87
2023/03/08 09:20:18;;;;;;;4.38;1.50;;;;;;;2.54;100.00;99111.25;4933827;29;20078;-87
2023/03/08 09:22:49;;;;;;;7.65;1.40;;;;;;;2.33;100.00;99085.19;4942597;28;20059;-86
2023/03/08 09:25:18;;;;;;;3.72;1.35;;;;;;;2.41;100.00;99059.97;4940008;29;20062;-86
2023/03/08 09:27:45;;;;;;;4.60;1.48;;;;;;;2.76;100.00;99096.78;4933116;29;20070;-87
2023/03/08 09:30:13;;;;;;;4.15;1.40;;;;;;;2.40;100.00;99096.19;4936699;29;20405;-86
2023/03/08 09:32:40;;;;;;;3.42;1.55;;;;;;;1.90;100.00;99113.09;4927803;29;20048;-86
2023/03/08 09:35:08;;;;;;;3.97;1.45;;;;;;;1.63;100.00;99108.69;4932288;29;20109;-86
2023/03/08 09:37:36;;;;;;;4.22;1.73;;;;;;;1.68;100.00;99099.97;4946316;28;20134;-86
2023/03/08 09:40:08;;;;;;;3.08;1.40;;;;;;;1.62;100.00;99070.91;4935496;29;20058;-86
2023/03/08 09:42:37;;;;;;;3.45;1.55;;;;;;;2.30;100.00;99087.00;4927932;29;20098;-86
2023/03/08 09:45:22;;;;;;;5.03;1.50;;;;;;;2.80;100.00;99108.69;4918725;28;20056;-86
2023/03/08 09:47:56;;;;;;;2.92;1.35;;;;;;;2.99;100.00;99110.69;4942744;28;20074;-86
2023/03/08 09:50:36;;;;;;;3.63;1.50;;;;;;;3.26;100.00;99108.06;4932336;29;20044;-86
2023/03/08 09:53:06;;;;;;;4.28;1.42;;;;;;;3.21;100.00;99109.09;4930132;29;20143;-86
2023/03/08 09:55:35;;;;;;;4.53;1.50;;;;;;;3.26;100.00;99096.00;4963437;28;20051;-86
2023/03/08 09:58:14;;;;;;;4.15;1.40;;;;;;;3.32;100.00;99080.25;4930804;29;20051;-86
2023/03/08 10:00:40;;;;;;;4.05;1.55;;;;;;;3.22;100.00;99084.94;4927159;29;20716;-86
2023/03/08 10:03:25;;;;;;;4.15;1.40;;;;;;;3.19;100.00;99108.28;4926531;29;20052;-86
2023/03/08 10:06:16;;;;;;;2.15;1.20;;;;;;;3.67;100.00;99105.84;4937252;29;20056;-86
2023/03/08 10:09:01;;;;;;;3.72;1.40;;;;;;;3.70;100.00;99096.22;4930924;28;20048;-86
2023/03/08 10:11:46;;;;;;;6.25;1.92;;;;;;;3.61;100.00;99091.34;4930090;29;20158;-85
2023/03/08 10:14:23;;;;;;;4.30;1.40;;;;;;;3.35;100.00;99098.28;4946907;29;20047;-86
2023/03/08 10:16:56;;;;;;;4.10;1.30;;;;;;;3.48;100.00;99083.16;4928315;29;20056;-85
2023/03/08 10:19:35;;;;;;;6.65;1.63;;;;;;;3.18;100.00;99035.94;4931644;29;20047;-85
2023/03/08 10:22:17;;;;;;;2.58;1.33;;;;;;;3.11;100.00;99078.41;4931371;28;20540;-85
2023/03/08 10:25:11;;;;;;;2.67;1.33;;;;;;;3.50;100.00;99089.13;4934809;29;20059;-84
2023/03/08 10:27:38;;;;;;;2.65;1.20;;;;;;;3.32;100.00;99069.91;4929687;28;20043;-85
2023/03/08 10:30:18;;;;;;;5.10;1.40;;;;;;;3.31;100.00;99078.59;4931179;29;20437;-86
2023/03/08 10:32:48;;;;;;;3.20;1.35;;;;;;;3.65;100.00;99099.84;4928088;29;20064;-87
2023/03/08 10:35:17;;;;;;;8.13;1.45;;;;;;;2.93;100.00;99023.84;4932127;29;20102;-87
2023/03/08 10:37:50;;;;;;;3.42;1.20;;;;;;;3.17;100.00;99081.66;4930607;29;20630;-86
2023/03/08 10:40:20;;;;;;;4.60;1.55;;;;;;;2.95;100.00;99055.66;4931162;29;20624;-88
2023/03/08 10:42:58;;;;;;;3.55;1.40;;;;;;;2.75;100.00;99052.88;4946305;29;20458;-87
2023/03/08 10:45:27;;;;;;;4.90;1.38;;;;;;;3.23;100.00;99065.91;4941177;28;20052;-86
2023/03/08 10:48:05;;;;;;;6.43;1.25;;;;;;;3.40;100.00;99069.69;4932479;29;20055;-88
2023/03/08 10:50:35;;;;;;;7.20;1.30;;;;;;;3.41;100.00;99090.28;4940201;29;20055;-88
2023/03/08 10:53:18;;;;;;;3.03;1.27;;;;;;;3.34;100.00;99081.06;4930328;28;20067;-88
2023/03/08 10:55:46;;;;;;;;;;;;;;;3.53;100.00;99103.72;4931323;29;20055;-87
2023/03/08 10:58:39;;;;;;;4.30;2.00;;;;;;;2.94;100.00;99094.47;4933136;29;19923;-87
2023/03/08 11:01:25;;;;;;;3.50;1.35;;;;;;;3.23;100.00;99104.69;4933466;28;20048;-86
2023/03/08 11:04:01;;;;;;;7.15;1.30;;;;;;;3.44;100.00;99106.63;4918737;28;20074;-86
2023/03/08 11:06:28;;;;;;;4.53;1.52;;;;;;;3.12;100.00;99106.81;4941427;29;20056;-87
2023/03/08 11:08:58;;;;;;;6.32;1.52;;;;;;;3.36;100.00;99099.94;4934189;29;20494;-86
2023/03/08 11:11:26;;;;;;;3.10;1.45;;;;;;;3.43;100.00;99095.41;4932994;29;20063;-87
2023/03/08 11:13:54;;;;;;;4.55;1.48;;;;;;;3.65;100.00;99098.13;4935139;29;20062;-87
2023/03/08 11:16:35;;;;;;;4.38;1.33;;;;;;;3.58;100.00;99060.41;4942168;29;20056;-87
2023/03/08 11:19:25;;;;;;;4.60;1.50;;;;;;;3.79;100.00;99107.97;4934502;29;20054;-87
2023/03/08 11:22:02;;;;;;;8.02;1.60;;;;;;;3.90;100.00;99105.84;4921670;29;20479;-87
2023/03/08 11:24:55;;;;;;;3.78;1.50;;;;;;;3.16;100.00;99059.25;4935178;29;20101;-88
2023/03/08 11:27:24;;;;;;;6.28;1.50;;;;;;;3.50;100.00;99102.06;4933455;28;20047;-88
2023/03/08 11:29:57;;;;;;;2.85;1.33;;;;;;;3.76;100.00;99102.91;4936980;28;20062;-88
2023/03/08 11:32:32;;;;;;;3.50;1.40;;;;;;;3.47;100.00;99075.44;4942949;28;20055;-89
2023/03/08 11:35:21;;;;;;;7.55;1.50;;;;;;;3.79;100.00;99098.47;4953616;28;20552;-87
2023/03/08 11:37:55;;;;;;;7.05;1.73;;;;;;;3.37;100.00;99069.78;4938534;28;20067;-88